Time;durP1;ratioP1;P1;durP2;ratioP2;P2;SDS_P1;SDS_P2;PMS_P1;PMS_P2;Temp;Humidity;BMP_temperature;BMP_pressure;BME280_temperature;BME280_humidity;BME280_pressure;Samples;Min_cycle;Max_cycle;Signal;HPM_P1;HPM_P2
2022/02/14 00:00:50;;;;;;;22.83;13.32;;;3.20;99.90;;;;;;2091263;28;20079;-71
2022/02/14 00:01:51;;;;;;;23.80;13.77;;;3.20;99.90;;;;;;2082416;28;20585;-71
2022/02/14 00:02:52;;;;;;;23.67;13.73;;;3.20;99.90;;;;;;2082243;28;20037;-70
2022/02/14 00:03:53;;;;;;;23.70;13.60;;;3.20;99.90;;;;;;2082930;28;20040;-71
2022/02/14 00:04:53;;;;;;;24.05;14.00;;;3.20;99.90;;;;;;2083154;28;20032;-71
2022/02/14 00:05:54;;;;;;;20.38;13.40;;;3.20;99.90;;;;;;2092374;28;20397;-71
2022/02/14 00:06:55;;;;;;;21.55;13.60;;;3.10;99.90;;;;;;2091349;28;20120;-70
2022/02/14 00:07:55;;;;;;;22.70;13.90;;;3.10;99.90;;;;;;2091166;28;20079;-71
2022/02/14 00:08:56;;;;;;;21.20;13.70;;;3.10;99.90;;;;;;2083092;28;20022;-71
2022/02/14 00:09:57;;;;;;;24.00;13.88;;;3.10;99.90;;;;;;2082846;28;20057;-70
2022/02/14 00:10:58;;;;;;;22.80;13.73;;;3.10;99.90;;;;;;2083964;28;20048;-71
2022/02/14 00:12:00;;;;;;;22.25;13.98;;;3.10;99.90;;;;;;2082425;28;20014;-71
2022/02/14 00:13:01;;;;;;;22.80;13.65;;;3.10;99.90;;;;;;2082223;28;20034;-70
2022/02/14 00:14:01;;;;;;;22.65;14.20;;;3.00;99.90;;;;;;2089991;28;20025;-69
2022/02/14 00:15:03;;;;;;;22.35;13.93;;;3.00;99.90;;;;;;2088548;28;20036;-69
2022/02/14 00:16:04;;;;;;;21.10;13.90;;;3.00;99.90;;;;;;2073705;28;20033;-70
2022/02/14 00:17:05;;;;;;;23.83;14.32;;;3.00;99.90;;;;;;2072856;28;20022;-70
2022/02/14 00:18:06;;;;;;;23.95;14.00;;;3.00;99.90;;;;;;2080749;28;20095;-71
2022/02/14 00:19:07;;;;;;;21.25;13.95;;;3.00;99.90;;;;;;2079836;28;20465;-70
2022/02/14 00:20:09;;;;;;;22.58;14.13;;;3.00;99.90;;;;;;2072744;28;20116;-70
2022/02/14 00:21:11;;;;;;;25.13;13.95;;;3.00;99.90;;;;;;2081046;28;20028;-71
2022/02/14 00:22:12;;;;;;;21.88;13.90;;;3.00;99.90;;;;;;2081463;28;20121;-70
2022/02/14 00:23:12;;;;;;;23.95;14.77;;;3.00;99.90;;;;;;2080775;28;20042;-71
2022/02/14 00:24:14;;;;;;;23.17;13.52;;;2.90;99.90;;;;;;2089266;28;20025;-70
2022/02/14 00:25:19;;;;;;;23.60;14.65;;;2.90;99.90;;;;;;2088810;28;20044;-71
2022/02/14 00:26:20;;;;;;;23.23;14.10;;;2.90;99.90;;;;;;2088714;28;20033;-70
2022/02/14 00:27:22;;;;;;;22.42;14.25;;;2.90;99.90;;;;;;2089118;28;20627;-68
2022/02/14 00:28:22;;;;;;;21.50;14.13;;;2.80;99.90;;;;;;2079839;28;20034;-70
2022/02/14 00:29:23;;;;;;;24.55;13.82;;;2.80;99.90;;;;;;2072201;28;20030;-71
2022/02/14 00:30:24;;;;;;;21.00;13.77;;;2.80;99.90;;;;;;2079839;28;20021;-69
2022/02/14 00:31:25;;;;;;;21.92;13.88;;;2.80;99.90;;;;;;2079529;28;20052;-71
2022/02/14 00:32:26;;;;;;;22.77;13.98;;;2.80;99.90;;;;;;2079718;28;20028;-70
2022/02/14 00:33:26;;;;;;;23.50;13.80;;;2.70;99.90;;;;;;2088182;28;20477;-70
2022/02/14 00:34:27;;;;;;;24.05;14.02;;;2.70;99.90;;;;;;2079698;28;20099;-71
2022/02/14 00:35:27;;;;;;;23.90;14.15;;;2.70;99.90;;;;;;2063230;28;20069;-71
2022/02/14 00:36:28;;;;;;;23.40;14.18;;;2.80;99.90;;;;;;2071755;28;20030;-70
2022/02/14 00:37:29;;;;;;;22.35;13.60;;;2.70;99.90;;;;;;2075881;28;20056;-71
2022/02/14 00:38:30;;;;;;;21.67;13.93;;;2.70;99.90;;;;;;2080237;28;20473;-70
2022/02/14 00:39:31;;;;;;;22.30;14.23;;;2.80;99.90;;;;;;2081751;28;20033;-69
2022/02/14 00:40:32;;;;;;;24.30;14.00;;;2.80;99.90;;;;;;2081934;28;20366;-69
2022/02/14 00:41:32;;;;;;;24.63;14.15;;;2.80;99.90;;;;;;2090510;28;20160;-68
2022/02/14 00:42:33;;;;;;;21.65;13.80;;;2.70;99.90;;;;;;2090931;28;20080;-69
2022/02/14 00:43:34;;;;;;;21.52;13.55;;;2.80;99.90;;;;;;2091050;28;20110;-68
2022/02/14 00:44:35;;;;;;;24.42;13.80;;;2.70;99.90;;;;;;2090964;28;20480;-69
2022/02/14 00:45:35;;;;;;;21.95;13.50;;;2.70;99.90;;;;;;2081819;28;20405;-69
2022/02/14 00:46:36;;;;;;;24.13;14.45;;;2.70;99.90;;;;;;2082276;28;20033;-71
2022/02/14 00:47:37;;;;;;;22.13;14.15;;;2.70;99.90;;;;;;2082070;28;20095;-70
2022/02/14 00:48:37;;;;;;;22.80;14.20;;;2.70;99.90;;;;;;2083021;28;20053;-69
2022/02/14 00:49:38;;;;;;;23.27;14.35;;;2.70;99.90;;;;;;2091097;28;20020;-70
2022/02/14 00:50:39;;;;;;;24.00;13.63;;;2.70;99.90;;;;;;2081405;28;20515;-71
2022/02/14 00:51:40;;;;;;;23.15;14.40;;;2.70;99.90;;;;;;2073353;28;20022;-72
2022/02/14 00:52:42;;;;;;;21.80;13.68;;;2.70;99.90;;;;;;2081880;28;20021;-69
2022/02/14 00:53:43;;;;;;;24.60;14.18;;;2.70;99.90;;;;;;2074412;28;20022;-70
2022/02/14 00:54:44;;;;;;;23.70;14.13;;;2.70;99.90;;;;;;2074251;28;20033;-69
2022/02/14 00:55:45;;;;;;;21.83;14.07;;;2.60;99.90;;;;;;2082076;28;20048;-71
2022/02/14 00:56:45;;;;;;;22.92;14.35;;;2.70;99.90;;;;;;2090808;28;20412;-70
2022/02/14 00:57:47;;;;;;;22.17;13.88;;;2.70;99.90;;;;;;2090989;28;20025;-70
2022/02/14 00:58:47;;;;;;;23.25;13.77;;;2.60;99.90;;;;;;2090261;28;20064;-70
2022/02/14 00:59:50;;;;;;;22.30;13.88;;;2.70;99.90;;;;;;2090025;28;20033;-69
2022/02/14 01:00:51;;;;;;;23.65;13.73;;;2.70;99.90;;;;;;2090287;28;20028;-70
2022/02/14 01:01:51;;;;;;;22.85;14.38;;;2.70;99.90;;;;;;2090196;28;20508;-69
2022/02/14 01:02:52;;;;;;;24.15;14.10;;;2.70;99.90;;;;;;2081556;28;20033;-70
2022/02/14 01:03:53;;;;;;;24.08;14.32;;;2.60;99.90;;;;;;2081473;28;20025;-69
2022/02/14 01:04:53;;;;;;;22.70;13.95;;;2.60;99.90;;;;;;2090658;28;20060;-70
2022/02/14 01:05:54;;;;;;;22.83;14.30;;;2.60;99.90;;;;;;2081502;28;20033;-70
2022/02/14 01:06:54;;;;;;;23.00;13.80;;;2.60;99.90;;;;;;2073536;28;20384;-70
2022/02/14 01:07:55;;;;;;;21.00;13.55;;;2.60;99.90;;;;;;2081228;28;20071;-69
2022/02/14 01:08:56;;;;;;;21.63;13.93;;;2.50;99.90;;;;;;2089944;28;20017;-68
2022/02/14 01:09:57;;;;;;;23.83;14.25;;;2.50;99.90;;;;;;2090019;28;20424;-71
2022/02/14 01:10:57;;;;;;;23.50;14.52;;;2.50;99.90;;;;;;2081877;28;20029;-70
2022/02/14 01:11:58;;;;;;;21.77;14.05;;;2.50;99.90;;;;;;2081597;28;20538;-70
2022/02/14 01:12:59;;;;;;;19.92;13.25;;;2.60;99.90;;;;;;2090663;28;20119;-69
2022/02/14 01:13:59;;;;;;;24.45;13.85;;;2.60;99.90;;;;;;2081852;28;20087;-68
2022/02/14 01:15:04;;;;;;;23.05;13.77;;;2.50;99.90;;;;;;2081583;28;20417;-68
2022/02/14 01:16:04;;;;;;;23.48;14.82;;;2.50;99.90;;;;;;2081680;28;20122;-69
2022/02/14 01:17:05;;;;;;;24.33;13.95;;;2.50;99.90;;;;;;2072933;28;20095;-69
2022/02/14 01:18:06;;;;;;;24.48;14.77;;;2.50;99.90;;;;;;2073322;28;20022;-69
2022/02/14 01:19:07;;;;;;;26.15;14.32;;;2.50;99.90;;;;;;2081206;28;20021;-68
2022/02/14 01:20:11;;;;;;;22.10;14.10;;;2.40;99.90;;;;;;2080983;28;20025;-69
2022/02/14 01:21:12;;;;;;;20.08;13.02;;;2.50;99.90;;;;;;2081937;28;20099;-69
2022/02/14 01:22:13;;;;;;;22.38;14.40;;;2.50;99.90;;;;;;2089731;28;20099;-68
2022/02/14 01:23:14;;;;;;;24.15;14.18;;;2.50;99.90;;;;;;2089819;28;20110;-69
2022/02/14 01:24:15;;;;;;;21.70;13.80;;;2.50;99.90;;;;;;2089569;28;20066;-69
2022/02/14 01:25:15;;;;;;;22.73;14.05;;;2.50;99.90;;;;;;2089671;28;20041;-68
2022/02/14 01:26:16;;;;;;;21.48;13.68;;;2.40;99.90;;;;;;2089833;28;20124;-69
2022/02/14 01:27:17;;;;;;;23.27;14.63;;;2.40;99.90;;;;;;2080704;28;20068;-68
2022/02/14 01:28:17;;;;;;;22.55;13.98;;;2.40;99.90;;;;;;2080858;28;20028;-69
2022/02/14 01:29:18;;;;;;;24.27;14.32;;;2.40;99.90;;;;;;2089784;28;20063;-68
2022/02/14 01:30:19;;;;;;;22.13;13.70;;;2.40;99.90;;;;;;2080429;28;20033;-69
2022/02/14 01:31:20;;;;;;;22.23;14.10;;;2.40;99.90;;;;;;2080952;28;20037;-69
2022/02/14 01:32:22;;;;;;;20.65;13.30;;;2.40;99.90;;;;;;2080602;28;20487;-71
2022/02/14 01:33:23;;;;;;;21.55;14.05;;;2.30;99.90;;;;;;2080998;28;20041;-69
2022/02/14 01:34:23;;;;;;;21.55;13.38;;;2.40;99.90;;;;;;2089810;28;20036;-69
2022/02/14 01:35:24;;;;;;;23.08;13.82;;;2.40;99.90;;;;;;2080977;28;20032;-69
2022/02/14 01:36:25;;;;;;;20.80;13.55;;;2.40;99.90;;;;;;2080942;28;20039;-69
2022/02/14 01:37:26;;;;;;;20.30;13.80;;;2.40;99.90;;;;;;2089560;28;20120;-69
2022/02/14 01:38:26;;;;;;;25.20;14.02;;;2.40;99.90;;;;;;2089590;28;20163;-69
2022/02/14 01:39:28;;;;;;;23.20;14.32;;;2.30;99.90;;;;;;2089632;28;20052;-67
2022/02/14 01:40:30;;;;;;;23.02;14.18;;;2.30;99.90;;;;;;2089260;28;20041;-69
2022/02/14 01:41:30;;;;;;;22.65;14.15;;;2.40;99.90;;;;;;2089597;28;20033;-70
2022/02/14 01:42:31;;;;;;;21.80;13.90;;;2.40;99.90;;;;;;2081043;28;20396;-68
2022/02/14 01:43:32;;;;;;;22.75;13.63;;;2.40;99.90;;;;;;2078135;28;20093;-69
2022/02/14 01:44:44;;;;;;;24.10;13.45;;;2.40;99.90;;;;;;2084744;28;20108;-68
2022/02/14 01:45:45;;;;;;;21.50;13.43;;;2.40;99.90;;;;;;2093579;28;20021;-69
2022/02/14 01:46:45;;;;;;;21.20;14.25;;;2.40;99.90;;;;;;2093670;28;20021;-69
2022/02/14 01:47:46;;;;;;;21.95;14.00;;;2.40;99.90;;;;;;2085060;28;20022;-69
2022/02/14 01:48:47;;;;;;;22.67;13.50;;;2.40;99.90;;;;;;2086450;28;20060;-69
2022/02/14 01:49:48;;;;;;;23.13;14.52;;;2.40;99.90;;;;;;2095092;28;20036;-69
2022/02/14 01:50:49;;;;;;;22.33;14.35;;;2.30;99.90;;;;;;2095191;28;20506;-69
2022/02/14 01:51:50;;;;;;;22.23;13.30;;;2.30;99.90;;;;;;2098613;28;20033;-69
2022/02/14 01:52:54;;;;;;;23.25;14.20;;;2.40;99.90;;;;;;2097783;28;20021;-68
2022/02/14 01:53:54;;;;;;;22.98;14.07;;;2.30;99.90;;;;;;2098400;28;20028;-68
2022/02/14 01:54:55;;;;;;;22.83;14.15;;;2.30;99.90;;;;;;2091363;28;20047;-69
2022/02/14 01:55:56;;;;;;;24.08;14.45;;;2.30;99.90;;;;;;2081944;28;20037;-69
2022/02/14 01:56:57;;;;;;;26.70;15.23;;;2.30;99.90;;;;;;2081367;28;20034;-69
2022/02/14 01:58:01;;;;;;;24.75;14.10;;;2.30;99.90;;;;;;2081439;28;20108;-70
2022/02/14 01:59:02;;;;;;;23.48;13.75;;;2.30;99.90;;;;;;2081534;28;20053;-70
2022/02/14 02:00:09;;;;;;;23.83;13.85;;;2.30;99.90;;;;;;2081104;28;20504;-69
2022/02/14 02:01:12;;;;;;;22.40;13.82;;;2.30;99.90;;;;;;2074052;28;20200;-69
2022/02/14 02:02:13;;;;;;;21.55;14.20;;;2.30;99.90;;;;;;2081347;28;20583;-71
2022/02/14 02:03:14;;;;;;;24.25;14.25;;;2.30;99.90;;;;;;2081324;28;20036;-71
2022/02/14 02:04:15;;;;;;;23.10;14.15;;;2.30;99.90;;;;;;2089973;28;20059;-70
2022/02/14 02:05:16;;;;;;;22.27;14.07;;;2.30;99.90;;;;;;2073049;28;20022;-70
2022/02/14 02:06:16;;;;;;;25.05;16.42;;;2.20;99.90;;;;;;2073314;28;20041;-70
2022/02/14 02:07:17;;;;;;;21.80;13.88;;;2.20;99.90;;;;;;2073400;28;20025;-70
2022/02/14 02:08:18;;;;;;;23.48;14.25;;;2.20;99.90;;;;;;2081945;28;20026;-69
2022/02/14 02:09:18;;;;;;;23.88;14.43;;;2.20;99.90;;;;;;2081558;28;20037;-69
2022/02/14 02:10:20;;;;;;;21.50;13.75;;;2.20;99.90;;;;;;2081026;28;20065;-69
2022/02/14 02:12:56;;;;;;;22.02;13.98;;;2.20;99.90;;;;;;2081115;28;20116;-70
2022/02/14 02:13:56;;;;;;;22.15;13.70;;;2.10;99.90;;;;;;2083500;28;20104;-71
2022/02/14 02:15:03;;;;;;;21.60;13.57;;;2.10;99.90;;;;;;2080760;28;20393;-69
2022/02/14 02:16:04;;;;;;;22.77;14.23;;;2.10;99.90;;;;;;2082020;28;20037;-68
2022/02/14 02:17:05;;;;;;;22.60;13.80;;;2.20;99.90;;;;;;2090246;28;20039;-68
2022/02/14 02:18:06;;;;;;;20.08;13.82;;;2.20;99.90;;;;;;2089977;28;20040;-69
2022/02/14 02:19:07;;;;;;;23.17;14.27;;;2.20;99.90;;;;;;2090193;28;20032;-70
2022/02/14 02:20:10;;;;;;;21.55;13.70;;;2.10;99.90;;;;;;2080419;28;20033;-70
2022/02/14 02:21:10;;;;;;;19.85;13.40;;;2.20;99.90;;;;;;2081339;28;20547;-69
2022/02/14 02:22:11;;;;;;;22.23;14.48;;;2.10;99.90;;;;;;2089658;28;20029;-69
2022/02/14 02:23:11;;;;;;;22.73;14.25;;;2.10;99.90;;;;;;2090028;28;20032;-69
2022/02/14 02:24:19;;;;;;;21.65;13.73;;;2.10;99.90;;;;;;2089637;28;20082;-68
2022/02/14 02:25:20;;;;;;;24.58;14.32;;;2.10;99.90;;;;;;2080813;28;20128;-69
2022/02/14 02:26:20;;;;;;;23.08;13.93;;;2.00;99.90;;;;;;2080498;28;20041;-69
2022/02/14 02:27:25;;;;;;;21.83;14.07;;;2.00;99.90;;;;;;2089544;28;20112;-69
2022/02/14 02:28:26;;;;;;;21.55;13.07;;;2.00;99.90;;;;;;2080640;28;20634;-69
2022/02/14 02:29:27;;;;;;;21.10;13.63;;;2.00;99.90;;;;;;2080726;28;20064;-69
2022/02/14 02:30:29;;;;;;;19.80;13.15;;;1.90;99.90;;;;;;2088799;28;20029;-69
2022/02/14 02:31:29;;;;;;;21.63;14.60;;;1.90;99.90;;;;;;2080199;28;20034;-68
2022/02/14 02:32:32;;;;;;;25.65;13.90;;;1.90;99.90;;;;;;2080662;28;20052;-70
2022/02/14 02:33:33;;;;;;;20.88;14.13;;;1.80;99.90;;;;;;2089355;28;20029;-69
2022/02/14 02:34:38;;;;;;;21.27;13.57;;;1.80;99.90;;;;;;2089271;28;20029;-69
2022/02/14 02:35:39;;;;;;;22.52;14.43;;;1.80;99.90;;;;;;2089334;28;20036;-68
2022/02/14 02:36:50;;;;;;;21.80;13.98;;;1.80;99.90;;;;;;2089375;28;20025;-68
2022/02/14 02:37:51;;;;;;;24.02;14.45;;;1.80;99.90;;;;;;2089386;28;20517;-69
2022/02/14 02:38:52;;;;;;;23.73;14.23;;;1.80;99.90;;;;;;2089437;28;20094;-68
2022/02/14 02:39:53;;;;;;;21.88;14.02;;;1.80;99.90;;;;;;2088866;28;20028;-68
2022/02/14 02:40:54;;;;;;;22.40;13.75;;;1.80;99.90;;;;;;2089209;28;20025;-69
2022/02/14 02:41:56;;;;;;;23.65;14.02;;;1.80;99.90;;;;;;2088873;28;20033;-69
2022/02/14 02:42:58;;;;;;;24.00;14.25;;;1.80;99.90;;;;;;2089101;28;20036;-69
2022/02/14 02:43:59;;;;;;;23.77;13.95;;;1.80;99.90;;;;;;2089112;28;20078;-69
2022/02/14 02:45:00;;;;;;;21.25;13.73;;;1.80;99.90;;;;;;2080335;28;20053;-68
2022/02/14 02:46:00;;;;;;;21.20;13.57;;;1.80;99.90;;;;;;2081698;28;20041;-70
2022/02/14 02:47:02;;;;;;;22.92;14.48;;;1.70;99.90;;;;;;2089365;28;20025;-70
2022/02/14 02:48:03;;;;;;;22.15;13.73;;;1.70;99.90;;;;;;2089090;28;20508;-70
2022/02/14 02:49:18;;;;;;;22.83;14.25;;;1.80;99.90;;;;;;2089097;28;20029;-70
2022/02/14 02:50:19;;;;;;;23.90;13.85;;;1.70;99.90;;;;;;2088642;28;20048;-70
2022/02/14 02:51:20;;;;;;;22.45;13.32;;;1.70;99.90;;;;;;2089030;28;20108;-70
2022/02/14 02:52:21;;;;;;;22.77;14.07;;;1.70;99.90;;;;;;2080170;28;20026;-70
2022/02/14 02:53:22;;;;;;;22.65;13.95;;;1.70;99.90;;;;;;2080213;28;20048;-70
2022/02/14 02:54:25;;;;;;;24.45;14.40;;;1.60;99.90;;;;;;2089020;28;20489;-70
2022/02/14 02:55:25;;;;;;;22.05;13.55;;;1.70;99.90;;;;;;2080121;28;20071;-70
2022/02/14 02:56:26;;;;;;;23.38;13.85;;;1.70;99.90;;;;;;2079967;28;20111;-70
2022/02/14 02:57:27;;;;;;;23.50;14.63;;;1.70;99.90;;;;;;2089184;28;20068;-70
2022/02/14 02:58:27;;;;;;;23.20;14.25;;;1.70;99.90;;;;;;2089032;28;20028;-70
2022/02/14 02:59:29;;;;;;;22.80;13.88;;;1.70;99.90;;;;;;2089127;28;20056;-70
2022/02/14 03:00:30;;;;;;;23.55;14.07;;;1.70;99.90;;;;;;2088471;28;20025;-70
2022/02/14 03:01:31;;;;;;;20.50;13.60;;;1.70;99.90;;;;;;2071507;28;20092;-70
2022/02/14 03:02:32;;;;;;;22.08;13.95;;;1.60;99.90;;;;;;2071439;28;20105;-70
2022/02/14 03:03:32;;;;;;;22.52;14.13;;;1.60;99.90;;;;;;2088688;28;20064;-70
2022/02/14 03:04:33;;;;;;;22.02;13.27;;;1.60;99.90;;;;;;2080185;28;20029;-70
2022/02/14 03:05:34;;;;;;;22.75;14.15;;;1.60;99.90;;;;;;2072122;28;20189;-70
2022/02/14 03:06:35;;;;;;;21.45;14.07;;;1.60;99.90;;;;;;2080094;28;20053;-70
2022/02/14 03:07:37;;;;;;;21.98;14.13;;;1.60;99.90;;;;;;2080146;28;20061;-70
2022/02/14 03:08:37;;;;;;;22.27;14.07;;;1.60;99.90;;;;;;2088909;28;20032;-70
2022/02/14 03:09:38;;;;;;;22.20;14.13;;;1.60;99.90;;;;;;2089060;28;20078;-70
2022/02/14 03:10:38;;;;;;;21.58;13.73;;;1.60;99.90;;;;;;2088625;28;20021;-70
2022/02/14 03:11:41;;;;;;;23.13;14.30;;;1.60;99.90;;;;;;2088678;28;20401;-70
2022/02/14 03:12:41;;;;;;;23.27;13.77;;;1.50;99.90;;;;;;2088958;28;20544;-70
2022/02/14 03:13:42;;;;;;;20.55;13.80;;;1.50;99.90;;;;;;2079990;28;20030;-70
2022/02/14 03:14:43;;;;;;;22.08;14.40;;;1.50;99.90;;;;;;2080145;28;20013;-70
2022/02/14 03:15:44;;;;;;;22.88;14.43;;;1.50;99.90;;;;;;2088930;28;20037;-69
2022/02/14 03:16:44;;;;;;;21.17;13.50;;;1.50;99.90;;;;;;2089060;28;20036;-69
2022/02/14 03:17:45;;;;;;;24.40;13.90;;;1.50;99.90;;;;;;2088837;28;20028;-69
2022/02/14 03:18:46;;;;;;;22.52;14.13;;;1.50;99.90;;;;;;2088944;28;20029;-69
2022/02/14 03:19:47;;;;;;;22.95;14.55;;;1.50;99.90;;;;;;2088501;28;20029;-69
2022/02/14 03:20:47;;;;;;;23.52;14.07;;;1.50;99.90;;;;;;2088980;28;20100;-69
2022/02/14 03:21:48;;;;;;;22.60;14.35;;;1.50;99.90;;;;;;2079755;28;20032;-69
2022/02/14 03:22:48;;;;;;;22.58;14.43;;;1.50;99.90;;;;;;2079959;28;20025;-69
2022/02/14 03:23:51;;;;;;;24.67;14.48;;;1.50;99.90;;;;;;2079859;28;20051;-70
2022/02/14 03:24:52;;;;;;;23.48;14.45;;;1.50;99.90;;;;;;2080112;28;20037;-69
2022/02/14 03:25:52;;;;;;;23.85;14.50;;;1.50;99.90;;;;;;2080163;28;20179;-69
2022/02/14 03:26:53;;;;;;;22.08;14.40;;;1.60;99.90;;;;;;2071944;28;20100;-69
2022/02/14 03:27:54;;;;;;;24.75;14.45;;;1.60;99.90;;;;;;2080076;28;20049;-69
2022/02/14 03:28:56;;;;;;;21.88;14.35;;;1.60;99.90;;;;;;2080047;28;20113;-69
2022/02/14 03:29:56;;;;;;;24.10;14.10;;;1.60;99.90;;;;;;2088443;28;20099;-69
2022/02/14 03:30:58;;;;;;;24.75;14.60;;;1.50;99.90;;;;;;2088851;28;20075;-69
2022/02/14 03:31:58;;;;;;;23.10;14.30;;;1.60;99.90;;;;;;2088326;28;20144;-68
2022/02/14 03:32:59;;;;;;;22.42;14.45;;;1.50;99.90;;;;;;2079977;28;20037;-68
2022/02/14 03:34:00;;;;;;;23.40;14.55;;;1.60;99.90;;;;;;2079942;28;20052;-68
2022/02/14 03:35:00;;;;;;;23.45;14.68;;;1.60;99.90;;;;;;2088985;28;20032;-68
2022/02/14 03:36:01;;;;;;;23.83;14.15;;;1.60;99.90;;;;;;2089076;28;20076;-70
2022/02/14 03:37:01;;;;;;;21.50;14.20;;;1.60;99.90;;;;;;2080252;28;20639;-69
2022/02/14 03:38:06;;;;;;;24.48;14.38;;;1.60;99.90;;;;;;2080249;28;20105;-70
2022/02/14 03:39:07;;;;;;;20.75;13.48;;;1.60;99.90;;;;;;2089088;28;20029;-69
2022/02/14 03:40:08;;;;;;;22.42;14.05;;;1.60;99.90;;;;;;2088474;28;20024;-69
2022/02/14 03:41:10;;;;;;;21.63;14.02;;;1.60;99.90;;;;;;2088998;28;20120;-69
2022/02/14 03:42:10;;;;;;;23.48;14.52;;;1.60;99.90;;;;;;2088787;28;20035;-69
2022/02/14 03:43:11;;;;;;;20.65;13.95;;;1.60;99.90;;;;;;2088928;28;20023;-69
2022/02/14 03:44:12;;;;;;;22.77;13.88;;;1.60;99.90;;;;;;2088909;28;20025;-69
2022/02/14 03:45:12;;;;;;;22.02;13.90;;;1.60;99.90;;;;;;2089039;28;20037;-70
2022/02/14 03:46:13;;;;;;;22.20;14.02;;;1.60;99.90;;;;;;2088781;28;20499;-70
2022/02/14 03:47:13;;;;;;;22.02;14.18;;;1.60;99.90;;;;;;2088798;28;20025;-70
2022/02/14 03:48:14;;;;;;;23.58;14.27;;;1.60;99.90;;;;;;2088705;28;20809;-70
2022/02/14 03:49:15;;;;;;;23.65;14.23;;;1.60;99.90;;;;;;2088698;28;20024;-70
2022/02/14 03:50:16;;;;;;;21.02;13.90;;;1.60;99.90;;;;;;2088094;28;20036;-70
2022/02/14 03:51:17;;;;;;;23.75;14.15;;;1.60;99.90;;;;;;2088746;28;20071;-70
2022/02/14 03:52:18;;;;;;;20.92;14.20;;;1.60;99.90;;;;;;2071567;28;20030;-69
2022/02/14 03:53:19;;;;;;;21.38;13.82;;;1.60;99.90;;;;;;2071788;28;20061;-70
2022/02/14 03:54:19;;;;;;;22.50;13.93;;;1.60;99.90;;;;;;2079817;28;20030;-70
2022/02/14 03:55:23;;;;;;;22.98;14.23;;;1.50;99.90;;;;;;2071891;28;20084;-70
2022/02/14 03:56:24;;;;;;;22.10;14.15;;;1.50;99.90;;;;;;2072237;28;20034;-70
2022/02/14 03:57:24;;;;;;;23.38;14.23;;;1.50;99.90;;;;;;2071579;28;20029;-71
2022/02/14 03:58:25;;;;;;;21.88;13.65;;;1.50;99.90;;;;;;2079883;28;20025;-70
2022/02/14 03:59:25;;;;;;;21.60;14.45;;;1.50;99.90;;;;;;2071688;28;20038;-70
2022/02/14 04:00:26;;;;;;;22.10;14.23;;;1.40;99.90;;;;;;2079487;28;20044;-69
2022/02/14 04:01:27;;;;;;;22.95;13.82;;;1.40;99.90;;;;;;2079830;28;20029;-69
2022/02/14 04:02:28;;;;;;;22.08;13.88;;;1.50;99.90;;;;;;2088430;28;20120;-69
2022/02/14 04:03:29;;;;;;;22.70;14.23;;;1.50;99.90;;;;;;2088568;28;20033;-69
2022/02/14 04:04:29;;;;;;;20.58;13.70;;;1.40;99.90;;;;;;2079623;28;20451;-70
2022/02/14 04:05:30;;;;;;;21.02;13.57;;;1.40;99.90;;;;;;2071609;28;20034;-69
2022/02/14 04:06:31;;;;;;;21.90;14.00;;;1.40;99.90;;;;;;2079907;28;20505;-70
2022/02/14 04:07:31;;;;;;;22.92;14.05;;;1.50;99.90;;;;;;2088767;28;20025;-69
2022/02/14 04:08:32;;;;;;;23.05;14.10;;;1.50;99.90;;;;;;2088696;28;20221;-69
2022/02/14 04:09:33;;;;;;;19.80;13.40;;;1.50;99.90;;;;;;2088415;28;20037;-70
2022/02/14 04:10:33;;;;;;;21.27;13.50;;;1.50;99.90;;;;;;2088022;28;20017;-70
2022/02/14 04:11:34;;;;;;;23.27;14.25;;;1.50;99.90;;;;;;2079464;28;20041;-70
2022/02/14 04:12:35;;;;;;;21.92;14.25;;;1.50;99.90;;;;;;2079839;28;20038;-70
2022/02/14 04:13:35;;;;;;;22.13;13.70;;;1.50;99.90;;;;;;2088398;28;20017;-69
2022/02/14 04:14:36;;;;;;;22.65;14.43;;;1.50;99.90;;;;;;2090200;28;20116;-68
2022/02/14 04:15:36;;;;;;;24.98;13.65;;;1.50;99.90;;;;;;2090127;28;20108;-69
2022/02/14 04:16:37;;;;;;;23.55;14.23;;;1.50;99.90;;;;;;2090283;28;20753;-69
2022/02/14 04:17:38;;;;;;;21.60;13.50;;;1.50;99.90;;;;;;2081261;28;20484;-68
2022/02/14 04:18:39;;;;;;;20.35;13.57;;;1.50;99.90;;;;;;2081411;28;20109;-69
2022/02/14 04:19:39;;;;;;;20.98;14.13;;;1.50;99.90;;;;;;2090364;28;20495;-70
2022/02/14 04:20:40;;;;;;;21.83;13.50;;;1.50;99.90;;;;;;2080748;28;20414;-69
2022/02/14 04:21:41;;;;;;;19.83;12.98;;;1.50;99.90;;;;;;2081149;28;20075;-70
2022/02/14 04:22:42;;;;;;;23.38;13.90;;;1.50;99.90;;;;;;2090207;28;20032;-69
2022/02/14 04:23:42;;;;;;;20.27;13.48;;;1.40;99.90;;;;;;2089901;28;20124;-69
2022/02/14 04:24:43;;;;;;;21.85;13.10;;;1.40;99.90;;;;;;2081254;28;20665;-69
2022/02/14 04:25:44;;;;;;;23.08;13.88;;;1.40;99.90;;;;;;2072895;28;20087;-70
2022/02/14 04:26:44;;;;;;;22.00;13.95;;;1.40;99.90;;;;;;2073185;28;20044;-70
2022/02/14 04:27:45;;;;;;;21.85;13.48;;;1.40;99.90;;;;;;2090193;28;20036;-68
2022/02/14 04:28:46;;;;;;;21.60;13.65;;;1.40;99.90;;;;;;2090105;28;20029;-69
2022/02/14 04:29:47;;;;;;;23.30;14.65;;;1.40;99.90;;;;;;2089711;28;20021;-69
2022/02/14 04:30:47;;;;;;;21.17;13.90;;;1.40;99.90;;;;;;2080978;28;20029;-69
2022/02/14 04:31:48;;;;;;;22.10;13.75;;;1.40;99.90;;;;;;2072461;28;20022;-68
2022/02/14 04:32:49;;;;;;;23.20;13.63;;;1.40;99.90;;;;;;2081187;28;20064;-68
2022/02/14 04:33:49;;;;;;;22.10;13.65;;;1.40;99.90;;;;;;2089837;28;20036;-68
2022/02/14 04:34:50;;;;;;;23.33;13.70;;;1.40;99.90;;;;;;2090140;28;20038;-70
2022/02/14 04:35:50;;;;;;;19.67;12.73;;;1.40;99.90;;;;;;2090049;28;20088;-69
2022/02/14 04:36:52;;;;;;;20.80;12.65;;;1.40;99.90;;;;;;2090156;28;20040;-68
2022/02/14 04:37:54;;;;;;;20.50;13.43;;;1.40;99.90;;;;;;2081196;28;20390;-69
2022/02/14 04:38:55;;;;;;;23.42;13.45;;;1.40;99.90;;;;;;2081372;28;20500;-68
2022/02/14 04:39:55;;;;;;;21.23;13.85;;;1.30;99.90;;;;;;2089593;28;20033;-68
2022/02/14 04:40:56;;;;;;;21.23;13.73;;;1.30;99.90;;;;;;2089972;28;20114;-68
2022/02/14 04:41:57;;;;;;;22.83;14.30;;;1.30;99.90;;;;;;2089657;28;20496;-68
2022/02/14 04:42:58;;;;;;;22.85;14.00;;;1.30;99.90;;;;;;2090089;28;20425;-70
2022/02/14 04:43:59;;;;;;;23.35;14.07;;;1.30;99.90;;;;;;2089904;28;20036;-70
2022/02/14 04:45:01;;;;;;;22.48;14.40;;;1.40;99.90;;;;;;2081033;28;20057;-69
2022/02/14 04:46:02;;;;;;;22.33;13.73;;;1.30;99.90;;;;;;2072771;28;20501;-69
2022/02/14 04:47:03;;;;;;;22.52;14.15;;;1.30;99.90;;;;;;2072852;28;20061;-69
2022/02/14 04:48:04;;;;;;;22.27;14.13;;;1.30;99.90;;;;;;2081169;28;20160;-69
2022/02/14 04:49:06;;;;;;;22.58;14.75;;;1.30;99.90;;;;;;2081182;28;20075;-69
2022/02/14 04:50:08;;;;;;;21.73;13.60;;;1.30;99.90;;;;;;2080824;28;20041;-69
2022/02/14 04:51:09;;;;;;;22.25;14.18;;;1.30;99.90;;;;;;2089923;28;20121;-69
2022/02/14 04:52:10;;;;;;;22.15;14.05;;;1.30;99.90;;;;;;2089672;28;20033;-69
2022/02/14 04:53:10;;;;;;;25.55;13.73;;;1.30;99.90;;;;;;2090033;28;20507;-69
2022/02/14 04:54:11;;;;;;;22.58;13.93;;;1.30;99.90;;;;;;2089947;28;20044;-69
2022/02/14 04:55:12;;;;;;;22.33;14.00;;;1.30;99.90;;;;;;2081083;28;20025;-69
2022/02/14 04:56:13;;;;;;;21.05;13.50;;;1.40;99.90;;;;;;2081656;28;20065;-70
2022/02/14 04:57:14;;;;;;;23.23;13.95;;;1.30;99.90;;;;;;2093942;28;20040;-70
2022/02/14 04:58:14;;;;;;;21.90;13.65;;;1.30;99.90;;;;;;2094615;28;20465;-70
2022/02/14 04:59:15;;;;;;;24.50;14.50;;;1.40;99.90;;;;;;2095036;28;20112;-70
2022/02/14 05:00:17;;;;;;;23.17;14.30;;;1.40;99.90;;;;;;2085490;28;20063;-70
2022/02/14 05:01:17;;;;;;;22.35;13.82;;;1.40;99.90;;;;;;2082901;28;20049;-68
2022/02/14 05:02:18;;;;;;;22.17;13.73;;;1.40;99.90;;;;;;2090056;28;20039;-69
2022/02/14 05:03:19;;;;;;;21.83;13.52;;;1.40;99.90;;;;;;2090410;28;20033;-70
2022/02/14 05:04:22;;;;;;;23.10;14.02;;;1.50;99.90;;;;;;2081527;28;20022;-70
2022/02/14 05:05:23;;;;;;;22.23;13.88;;;1.40;99.90;;;;;;2073615;28;20045;-68
2022/02/14 05:06:23;;;;;;;23.83;14.57;;;1.50;99.90;;;;;;2073215;28;20025;-70
2022/02/14 05:07:24;;;;;;;19.88;13.35;;;1.50;99.90;;;;;;2081193;28;20041;-70
2022/02/14 05:08:25;;;;;;;22.83;14.45;;;1.40;99.90;;;;;;2089856;28;20053;-69
2022/02/14 05:09:25;;;;;;;23.15;13.88;;;1.50;99.90;;;;;;2081026;28;20052;-69
2022/02/14 05:10:26;;;;;;;21.40;13.80;;;1.50;99.90;;;;;;2080610;28;20563;-69
2022/02/14 05:11:27;;;;;;;27.95;14.40;;;1.50;99.90;;;;;;2089550;28;20136;-69
2022/02/14 05:12:27;;;;;;;21.85;14.50;;;1.50;99.90;;;;;;2090095;28;20033;-69
2022/02/14 05:13:28;;;;;;;22.13;14.07;;;1.40;99.90;;;;;;2081034;28;20066;-69
2022/02/14 05:14:29;;;;;;;23.25;14.40;;;1.40;99.90;;;;;;2081252;28;20425;-69
2022/02/14 05:15:29;;;;;;;20.85;14.07;;;1.40;99.90;;;;;;2090061;28;20144;-68